Time;durP1;ratioP1;P1;durP2;ratioP2;P2;SDS_P1;SDS_P2;PMS_P1;PMS_P2;Temp;Humidity;BMP_temperature;BMP_pressure;BME280_temperature;BME280_humidity;BME280_pressure;Samples;Min_cycle;Max_cycle;Signal;HPM_P1;HPM_P2
2023/07/14 00:01:22;;;;;;;20.50;8.38;;;;;;;-142.57;100.00;115900.28;6278156;22;20087;-79
2023/07/14 00:03:49;;;;;;;19.60;7.95;;;;;;;-142.57;100.00;115900.28;6279062;22;20007;-82
2023/07/14 00:06:16;;;;;;;29.45;8.30;;;;;;;-142.57;100.00;115900.28;6280114;22;20041;-80
2023/07/14 00:08:42;;;;;;;17.35;7.57;;;;;;;-142.57;100.00;115900.28;6280553;22;20431;-82
2023/07/14 00:11:11;;;;;;;18.20;7.68;;;;;;;-142.57;100.00;115900.28;6280074;22;20433;-80
2023/07/14 00:13:36;;;;;;;19.90;7.18;;;;;;;-142.57;100.00;115900.28;6280219;22;20058;-81
2023/07/14 00:16:02;;;;;;;18.65;7.53;;;;;;;-142.57;100.00;115900.28;6278905;22;20017;-81
2023/07/14 00:18:27;;;;;;;15.90;6.57;;;;;;;-142.57;100.00;115900.28;6277942;22;20008;-81
2023/07/14 00:20:53;;;;;;;19.08;7.25;;;;;;;-142.57;100.00;115900.28;6279500;22;20019;-80
2023/07/14 00:23:18;;;;;;;19.45;7.57;;;;;;;-142.57;100.00;115900.28;6279514;22;20008;-80
2023/07/14 00:25:45;;;;;;;20.55;7.20;;;;;;;-142.57;100.00;115900.28;6279990;22;20331;-81
2023/07/14 00:28:15;;;;;;;23.55;7.85;;;;;;;-142.57;100.00;115900.28;6280125;22;20008;-81
2023/07/14 00:30:41;;;;;;;17.13;7.80;;;;;;;-142.57;100.00;115900.28;6280488;22;20008;-81
2023/07/14 00:33:13;;;;;;;16.15;7.45;;;;;;;-142.57;100.00;115900.28;6279654;22;20389;-80
2023/07/14 00:35:41;;;;;;;21.98;6.93;;;;;;;-142.57;100.00;115900.28;6252011;22;20034;-79
2023/07/14 00:38:06;;;;;;;18.40;7.30;;;;;;;-142.57;100.00;115900.28;6279443;22;20004;-82
2023/07/14 00:40:42;;;;;;;10.32;6.40;;;;;;;-142.57;100.00;115900.28;6253342;22;20047;-79
2023/07/14 00:43:25;;;;;;;16.58;6.65;;;;;;;-142.57;100.00;115900.28;6280476;22;20015;-79
2023/07/14 00:45:54;;;;;;;15.10;6.13;;;;;;;-142.57;100.00;115900.28;6280488;22;20011;-81
2023/07/14 00:48:22;;;;;;;17.42;6.57;;;;;;;-142.57;100.00;115900.28;6253132;22;20346;-80
2023/07/14 00:50:48;;;;;;;18.77;7.00;;;;;;;-142.57;100.00;115900.28;6281456;22;20052;-81
2023/07/14 00:53:27;;;;;;;19.65;6.40;;;;;;;-142.57;94.28;115900.28;6253423;22;20031;-83
2023/07/14 00:56:12;;;;;;;13.60;6.07;;;;;;;-142.57;93.83;115900.28;6252739;22;20018;-86
2023/07/14 00:58:47;;;;;;;19.85;6.60;;;;;;;-142.57;93.21;115900.28;6277759;22;20398;-80
2023/07/14 01:01:22;;;;;;;19.45;7.50;;;;;;;-142.57;97.19;115900.28;6280041;22;20003;-81
2023/07/14 01:03:51;;;;;;;18.85;7.68;;;;;;;-142.57;100.00;115900.28;6279359;22;20012;-80
2023/07/14 01:06:24;;;;;;;18.92;6.70;;;;;;;-142.57;94.49;115900.28;6280399;22;20032;-80
2023/07/14 01:09:01;;;;;;;14.35;6.40;;;;;;;-142.57;90.96;115900.28;6253463;22;20101;-79
2023/07/14 01:11:38;;;;;;;10.13;5.75;;;;;;;-142.57;87.59;115900.28;6278385;22;20085;-79
2023/07/14 01:14:07;;;;;;;12.15;5.70;;;;;;;-142.57;86.37;115900.28;6251797;22;20015;-80
2023/07/14 01:16:37;;;;;;;13.88;6.05;;;;;;;-142.57;86.21;115900.28;6252859;22;20288;-81
2023/07/14 01:19:28;;;;;;;9.00;5.22;;;;;;;-142.57;85.67;115900.28;6279552;22;20003;-84
2023/07/14 01:22:05;;;;;;;11.43;5.57;;;;;;;-142.57;86.30;115900.28;6252064;22;20439;-82
2023/07/14 01:24:43;;;;;;;10.60;5.47;;;;;;;-142.57;86.08;115900.28;6253555;22;20526;-85
2023/07/14 01:27:09;;;;;;;16.23;5.60;;;;;;;-142.57;85.33;115900.28;6281054;22;20012;-83
2023/07/14 01:29:36;;;;;;;10.38;5.70;;;;;;;-142.57;85.50;115900.28;6280398;22;20049;-82
2023/07/14 01:32:09;;;;;;;14.00;6.38;;;;;;;-142.57;86.25;115900.28;6279791;22;20018;-81
2023/07/14 01:34:37;;;;;;;9.90;6.15;;;;;;;-142.57;87.47;115900.28;6251827;22;20075;-81
2023/07/14 01:37:03;;;;;;;12.10;6.00;;;;;;;-142.57;88.12;115900.28;6278601;22;20050;-80
2023/07/14 01:39:29;;;;;;;9.95;6.22;;;;;;;-142.57;88.38;115900.28;6252102;22;20008;-81
2023/07/14 01:41:54;;;;;;;8.93;6.70;;;;;;;-142.57;90.51;115900.28;6226693;22;20004;-85
2023/07/14 01:44:26;;;;;;;10.43;6.43;;;;;;;-142.57;91.71;115900.28;6279567;22;20003;-80
2023/07/14 01:46:52;;;;;;;11.93;6.45;;;;;;;-142.57;91.99;115900.28;6227943;22;20011;-80
2023/07/14 01:49:41;;;;;;;15.45;6.70;;;;;;;-142.57;92.32;115900.28;6280094;22;20082;-78
2023/07/14 01:52:13;;;;;;;11.98;6.47;;;;;;;-142.57;93.49;115900.28;6280947;22;20015;-85
2023/07/14 01:55:04;;;;;;;8.93;6.63;;;;;;;-142.57;94.72;115900.28;6286850;22;20008;-80
2023/07/14 01:57:34;;;;;;;10.77;6.82;;;;;;;-142.57;95.69;115900.28;6253948;22;20350;-79
2023/07/14 02:00:09;;;;;;;12.57;6.57;;;;;;;-142.57;95.46;115900.28;6253446;22;20011;-78
2023/07/14 02:02:43;;;;;;;12.25;6.95;;;;;;;-142.57;95.15;115900.28;6292673;22;20016;-81
2023/07/14 02:05:41;;;;;;;10.02;7.40;;;;;;;-142.57;95.52;115900.28;6263983;22;20000;-81
2023/07/14 02:08:14;;;;;;;15.90;7.75;;;;;;;-142.57;95.28;115900.28;6288406;22;20019;-86
2023/07/14 02:10:40;;;;;;;;;;;;;;;-142.57;95.16;115900.28;6256665;22;20012;-83
2023/07/14 02:13:08;;;;;;;14.18;7.75;;;;;;;-142.57;94.90;115900.28;6282233;22;19911;-82
2023/07/14 02:15:34;;;;;;;13.73;8.20;;;;;;;-142.57;95.18;115900.28;6257343;22;20339;-82
2023/07/14 02:18:00;;;;;;;13.02;7.57;;;;;;;-142.57;95.91;115900.28;6283486;22;20004;-85
2023/07/14 02:20:37;;;;;;;14.30;7.90;;;;;;;-142.57;95.36;115900.28;6254975;22;20064;-86
2023/07/14 02:23:05;;;;;;;10.35;7.82;;;;;;;-142.57;95.39;115900.28;6279930;22;20091;-81
2023/07/14 02:25:41;;;;;;;11.88;8.30;;;;;;;-142.57;95.73;115900.28;6281473;22;20087;-81
2023/07/14 02:28:09;;;;;;;12.57;7.25;;;;;;;-142.57;96.15;115900.28;6279552;22;20132;-83
2023/07/14 02:30:37;;;;;;;13.73;8.35;;;;;;;-142.57;95.75;115900.28;6279599;22;20073;-82
2023/07/14 02:33:13;;;;;;;13.18;7.90;;;;;;;-142.57;95.54;115900.28;6252321;22;20324;-83
2023/07/14 02:36:12;;;;;;;11.93;8.38;;;;;;;-142.57;95.79;115900.28;6278997;22;20007;-81
2023/07/14 02:38:39;;;;;;;19.13;8.45;;;;;;;-142.57;96.01;115900.28;6232207;22;20016;-83
2023/07/14 02:41:08;;;;;;;14.07;7.88;;;;;;;-142.57;96.36;115900.28;6279541;22;20065;-85
2023/07/14 02:43:33;;;;;;;14.98;8.65;;;;;;;-142.57;96.24;115900.28;6279111;22;20089;-85
2023/07/14 02:46:25;;;;;;;12.95;8.65;;;;;;;-142.57;97.08;115900.28;6279676;22;20058;-80
2023/07/14 02:48:52;;;;;;;16.70;8.40;;;;;;;-142.57;97.69;115900.28;6280525;22;20012;-80
2023/07/14 02:51:18;;;;;;;14.93;8.55;;;;;;;-142.57;96.13;115900.28;6280414;22;20011;-83
2023/07/14 02:53:44;;;;;;;17.35;8.80;;;;;;;-142.57;96.37;115900.28;6252422;22;20011;-84
2023/07/14 02:56:09;;;;;;;23.80;8.65;;;;;;;-142.57;95.49;115900.28;6280468;22;20068;-83
2023/07/14 02:58:36;;;;;;;22.40;9.02;;;;;;;-142.57;95.26;115900.28;6280664;22;20442;-85
2023/07/14 03:01:03;;;;;;;20.27;9.63;;;;;;;-142.57;94.25;115900.28;6280385;22;20054;-83
2023/07/14 03:03:29;;;;;;;16.83;9.80;;;;;;;-142.57;94.22;115900.28;6254524;22;20458;-83
2023/07/14 03:05:55;;;;;;;19.75;9.30;;;;;;;-142.57;94.80;115900.28;6279986;22;20004;-83
2023/07/14 03:08:21;;;;;;;21.02;9.35;;;;;;;-142.57;94.74;115900.28;6281086;22;20014;-80
2023/07/14 03:10:54;;;;;;;17.02;9.60;;;;;;;-142.57;95.87;115900.28;6253464;22;20052;-80
2023/07/14 03:13:19;;;;;;;16.80;9.20;;;;;;;-142.57;95.68;115900.28;6254606;22;20014;-85
2023/07/14 03:15:45;;;;;;;17.17;8.88;;;;;;;-142.57;96.43;115900.28;6255771;22;20073;-80
2023/07/14 03:18:11;;;;;;;19.90;9.35;;;;;;;-142.57;96.24;115900.28;6281939;22;20007;-84
2023/07/14 03:20:39;;;;;;;15.68;9.73;;;;;;;-142.57;96.99;115900.28;6279436;22;20015;-83
2023/07/14 03:23:05;;;;;;;13.85;9.23;;;;;;;-142.57;97.92;115900.28;6282395;22;20307;-85
2023/07/14 03:25:30;;;;;;;18.20;9.65;;;;;;;-142.57;97.67;115900.28;6283369;22;20038;-85
2023/07/14 03:27:57;;;;;;;18.70;9.10;;;;;;;-142.57;98.45;115900.28;6290247;22;20031;-80
2023/07/14 03:30:22;;;;;;;23.40;9.65;;;;;;;-142.57;98.91;115900.28;6293665;22;20018;-80
2023/07/14 03:32:50;;;;;;;16.10;9.68;;;;;;;-142.57;98.99;115900.28;6294963;22;20000;-80
2023/07/14 03:35:18;;;;;;;15.68;9.80;;;;;;;-142.57;98.46;115900.28;6267389;22;20007;-82
2023/07/14 03:37:45;;;;;;;21.10;10.35;;;;;;;-142.57;99.63;115900.28;6266182;22;20034;-80
2023/07/14 03:40:11;;;;;;;27.73;11.57;;;;;;;-142.57;99.13;115900.28;6261444;22;20087;-85
2023/07/14 03:42:41;;;;;;;16.98;9.48;;;;;;;-142.57;98.49;115900.28;6295610;22;20047;-81
2023/07/14 03:45:08;;;;;;;22.08;10.55;;;;;;;-142.57;97.59;115900.28;6274634;22;20039;-81
2023/07/14 03:47:38;;;;;;;17.65;10.02;;;;;;;-142.57;97.95;115900.28;6302380;22;20020;-80
2023/07/14 03:50:04;;;;;;;14.60;9.85;;;;;;;-142.57;96.78;115900.28;6300181;22;20379;-80
2023/07/14 03:52:29;;;;;;;19.40;10.13;;;;;;;-142.57;97.36;115900.28;6273671;22;20007;-80
2023/07/14 03:54:56;;;;;;;16.77;10.02;;;;;;;-142.57;98.00;115900.28;6241901;22;20029;-81
2023/07/14 03:57:22;;;;;;;16.85;10.10;;;;;;;-142.57;98.07;115900.28;6294673;22;20014;-82
2023/07/14 03:59:47;;;;;;;18.80;10.48;;;;;;;-142.57;97.23;115900.28;6293410;22;20007;-80
2023/07/14 04:02:13;;;;;;;18.35;10.05;;;;;;;-142.57;98.18;115900.28;6295040;22;20012;-82
2023/07/14 04:04:38;;;;;;;14.05;9.85;;;;;;;-142.57;98.54;115900.28;6294165;22;20011;-83
2023/07/14 04:07:04;;;;;;;16.98;10.55;;;;;;;-142.57;99.52;115900.28;6267123;22;20351;-83
2023/07/14 04:09:30;;;;;;;12.73;9.70;;;;;;;-142.57;99.36;115900.28;6288096;22;20014;-85
2023/07/14 04:11:57;;;;;;;17.25;10.40;;;;;;;-142.57;100.00;115900.28;6278940;22;20035;-85
2023/07/14 04:14:22;;;;;;;15.48;10.77;;;;;;;-142.57;100.00;115900.28;6279827;22;20011;-84
2023/07/14 04:16:47;;;;;;;17.35;10.63;;;;;;;-142.57;99.17;115900.28;6278215;22;20130;-86
2023/07/14 04:19:13;;;;;;;17.02;10.15;;;;;;;-142.57;98.64;115900.28;6279196;22;20008;-89
2023/07/14 04:21:38;;;;;;;16.52;10.57;;;;;;;-142.57;100.00;115900.28;6278340;22;20053;-83
2023/07/14 04:24:04;;;;;;;17.13;10.43;;;;;;;-142.57;98.50;115900.28;6278807;22;20004;-87
2023/07/14 04:26:30;;;;;;;20.23;11.07;;;;;;;-142.57;99.03;115900.28;6278456;22;20435;-85
2023/07/14 04:28:56;;;;;;;16.60;10.32;;;;;;;-142.57;99.04;115900.28;6278701;22;20376;-82
2023/07/14 04:31:22;;;;;;;17.40;10.70;;;;;;;-142.57;99.61;115900.28;6251187;22;20004;-87
2023/07/14 04:33:49;;;;;;;21.85;10.10;;;;;;;-142.57;100.00;115900.28;6254997;22;20003;-84
2023/07/14 04:36:15;;;;;;;17.50;10.50;;;;;;;-142.57;100.00;115900.28;6288335;22;20004;-82
2023/07/14 04:38:42;;;;;;;21.75;9.82;;;;;;;-142.57;100.00;115900.28;6292288;22;20072;-87
2023/07/14 04:41:12;;;;;;;17.83;10.02;;;;;;;-142.57;100.00;115900.28;6284730;22;20012;-83
2023/07/14 04:43:38;;;;;;;16.60;9.95;;;;;;;-142.57;100.00;115900.28;6285294;22;20008;-83
2023/07/14 04:46:03;;;;;;;16.15;10.88;;;;;;;-142.57;100.00;115900.28;6281450;22;20497;-84
2023/07/14 04:48:29;;;;;;;18.48;10.52;;;;;;;-142.57;100.00;115900.28;6279056;22;20039;-86
2023/07/14 04:50:54;;;;;;;22.17;10.32;;;;;;;-142.57;100.00;115900.28;6251678;22;20007;-88
2023/07/14 04:53:20;;;;;;;17.90;10.63;;;;;;;-142.57;100.00;115900.28;6278837;22;20020;-85
2023/07/14 04:55:46;;;;;;;19.17;11.10;;;;;;;-142.57;100.00;115900.28;6278711;22;20339;-81
2023/07/14 04:58:14;;;;;;;24.75;10.65;;;;;;;-142.57;100.00;115900.28;6278727;22;20004;-80
2023/07/14 05:00:43;;;;;;;23.60;10.15;;;;;;;-142.57;100.00;115900.28;6279686;22;20016;-87
2023/07/14 05:03:09;;;;;;;19.85;10.05;;;;;;;-142.57;100.00;115900.28;6278655;22;20090;-82
2023/07/14 05:05:35;;;;;;;15.88;9.80;;;;;;;-142.57;100.00;115900.28;6277957;22;20020;-82
2023/07/14 05:08:01;;;;;;;26.60;11.13;;;;;;;-142.57;100.00;115900.28;6278448;22;20095;-84
2023/07/14 05:10:28;;;;;;;23.90;10.90;;;;;;;-142.57;100.00;115900.28;6279493;22;20377;-85
2023/07/14 05:12:55;;;;;;;23.35;10.57;;;;;;;-142.57;100.00;115900.28;6279422;22;20004;-85
2023/07/14 05:15:24;;;;;;;23.90;11.40;;;;;;;-142.57;100.00;115900.28;6280986;22;20031;-89
2023/07/14 05:17:50;;;;;;;16.90;10.30;;;;;;;-142.57;100.00;115900.28;6280635;22;20012;-86
2023/07/14 05:20:18;;;;;;;17.48;11.05;;;;;;;-142.57;100.00;115900.28;6279545;22;20011;-84
2023/07/14 05:22:49;;;;;;;19.42;10.48;;;;;;;-142.57;100.00;115900.28;6251288;22;20390;-84
2023/07/14 05:25:16;;;;;;;18.98;10.40;;;;;;;-142.57;100.00;115900.28;6278373;22;20076;-83
2023/07/14 05:27:45;;;;;;;21.77;11.27;;;;;;;-142.57;100.00;115900.28;6279128;22;20012;-85
2023/07/14 05:30:18;;;;;;;21.15;10.52;;;;;;;-142.57;100.00;115900.28;6280391;22;20007;-84
2023/07/14 05:32:45;;;;;;;22.38;10.30;;;;;;;-142.57;100.00;115900.28;6280206;22;20036;-83
2023/07/14 05:35:11;;;;;;;20.02;11.25;;;;;;;-142.57;100.00;115900.28;6287518;22;20072;-82
2023/07/14 05:37:37;;;;;;;19.52;10.52;;;;;;;-142.57;100.00;115900.28;6276387;22;19999;-82
2023/07/14 05:40:06;;;;;;;16.48;9.48;;;;;;;-142.57;100.00;115900.28;6299872;22;20109;-87
2023/07/14 05:42:32;;;;;;;20.08;10.75;;;;;;;-142.57;100.00;115900.28;6285337;22;20008;-83
2023/07/14 05:44:57;;;;;;;19.02;10.73;;;;;;;-142.57;100.00;115900.28;6280750;22;20034;-85
2023/07/14 05:47:24;;;;;;;19.73;10.25;;;;;;;-142.57;100.00;115900.28;6277649;22;20011;-82
2023/07/14 05:49:50;;;;;;;18.02;9.18;;;;;;;-142.57;100.00;115900.28;6279101;22;20004;-83
2023/07/14 05:52:16;;;;;;;19.73;9.85;;;;;;;-142.57;100.00;115900.28;6252049;22;20018;-86
2023/07/14 05:54:42;;;;;;;19.20;9.98;;;;;;;-142.57;100.00;115900.28;6280571;22;20038;-84
2023/07/14 05:57:08;;;;;;;23.02;10.32;;;;;;;-142.57;100.00;115900.28;6278333;22;20019;-81
2023/07/14 05:59:34;;;;;;;22.55;10.48;;;;;;;-142.57;100.00;115900.28;6278050;22;20003;-85
2023/07/14 06:02:00;;;;;;;25.92;10.85;;;;;;;-142.57;100.00;115900.28;6278360;22;20015;-86
2023/07/14 06:04:25;;;;;;;23.00;10.75;;;;;;;-142.57;100.00;115900.28;6280310;22;20457;-87
2023/07/14 06:06:51;;;;;;;24.65;11.27;;;;;;;-142.57;100.00;115900.28;6279141;22;20276;-87
2023/07/14 06:09:16;;;;;;;23.05;12.35;;;;;;;-142.57;100.00;115900.28;6279184;22;20059;-85
2023/07/14 06:11:45;;;;;;;27.80;11.43;;;;;;;-142.57;100.00;115900.28;6279428;22;20004;-87
2023/07/14 06:14:11;;;;;;;19.35;11.68;;;;;;;-142.57;100.00;115900.28;6252648;22;20131;-86
2023/07/14 06:16:37;;;;;;;23.80;11.40;;;;;;;-142.57;100.00;115900.28;6279520;22;20023;-88
2023/07/14 06:19:03;;;;;;;22.20;12.30;;;;;;;-142.57;100.00;115900.28;6277617;22;20327;-86
2023/07/14 06:21:29;;;;;;;22.13;11.93;;;;;;;-142.57;100.00;115900.28;6278118;22;20034;-85
2023/07/14 06:23:54;;;;;;;28.25;11.45;;;;;;;-142.57;100.00;115900.28;6278916;22;20011;-85
2023/07/14 06:26:20;;;;;;;23.30;11.45;;;;;;;-142.57;100.00;115900.28;6280852;22;20410;-84
2023/07/14 06:28:45;;;;;;;27.50;11.00;;;;;;;-142.57;100.00;115900.28;6236152;22;20011;-85
2023/07/14 06:31:13;;;;;;;21.55;11.45;;;;;;;-142.57;100.00;115900.28;6288480;22;20492;-84
2023/07/14 06:33:38;;;;;;;34.03;13.40;;;;;;;-142.57;100.00;115900.28;6285908;22;20019;-82
2023/07/14 06:36:05;;;;;;;21.17;11.93;;;;;;;-142.57;100.00;115900.28;6278406;22;20004;-84
2023/07/14 06:38:31;;;;;;;21.05;11.57;;;;;;;-142.57;100.00;115900.28;6275395;22;20012;-81
2023/07/14 06:41:02;;;;;;;18.88;10.55;;;;;;;-142.57;100.00;115900.28;6250628;22;20023;-83
2023/07/14 06:43:32;;;;;;;19.85;8.73;;;;;;;-142.57;100.00;115900.28;6278352;22;20134;-86
2023/07/14 06:45:58;;;;;;;21.15;12.32;;;;;;;-142.57;100.00;115900.28;6277939;22;20072;-83
2023/07/14 06:48:25;;;;;;;24.67;11.52;;;;;;;-142.57;100.00;115900.28;6277882;22;20011;-85
2023/07/14 06:50:51;;;;;;;24.60;11.15;;;;;;;-142.57;100.00;115900.28;6250592;22;20000;-86
2023/07/14 06:53:18;;;;;;;19.40;11.48;;;;;;;-142.57;100.00;115900.28;6225182;22;20025;-84
2023/07/14 06:55:44;;;;;;;14.15;10.68;;;;;;;-142.57;100.00;115900.28;6250823;22;20008;-82
2023/07/14 06:58:10;;;;;;;29.83;12.48;;;;;;;-142.57;100.00;115900.28;6251124;22;20050;-83
2023/07/14 07:00:36;;;;;;;17.33;11.20;;;;;;;-142.57;100.00;115900.28;6277758;22;20007;-84
2023/07/14 07:03:03;;;;;;;20.23;11.50;;;;;;;-142.57;100.00;115900.28;6250439;22;20438;-87
2023/07/14 07:05:30;;;;;;;17.00;11.38;;;;;;;-142.57;100.00;115900.28;6278104;22;20430;-86
2023/07/14 07:07:55;;;;;;;22.45;11.20;;;;;;;-142.57;100.00;115900.28;6256044;22;20015;-91
2023/07/14 07:10:24;;;;;;;32.63;11.88;;;;;;;-142.57;100.00;115900.28;6257364;22;20011;-92
2023/07/14 07:12:50;;;;;;;21.23;11.50;;;;;;;-142.57;100.00;115900.28;6254814;22;20008;-87
2023/07/14 07:15:16;;;;;;;18.20;11.48;;;;;;;-142.57;100.00;115900.28;6277943;22;20320;-87
2023/07/14 07:17:43;;;;;;;20.33;10.18;;;;;;;-142.57;100.00;115900.28;6252857;22;20019;-89
2023/07/14 07:20:09;;;;;;;24.30;10.45;;;;;;;-142.57;100.00;115900.28;6253373;22;20014;-90
2023/07/14 07:22:39;;;;;;;26.83;11.25;;;;;;;-142.57;100.00;115900.28;6253743;22;20012;-89
2023/07/14 07:25:06;;;;;;;17.23;10.13;;;;;;;-142.57;100.00;115900.28;6283233;22;20035;-88
2023/07/14 07:27:32;;;;;;;18.90;9.98;;;;;;;-142.57;100.00;115900.28;6284018;22;20011;-86
2023/07/14 07:29:59;;;;;;;22.42;10.50;;;;;;;-142.57;100.00;115900.28;6252410;22;20011;-88
2023/07/14 07:32:47;;;;;;;22.80;11.02;;;;;;;-142.57;100.00;115900.28;6280617;22;20011;-89
2023/07/14 07:35:13;;;;;;;25.15;10.20;;;;;;;-142.57;100.00;115900.28;6287501;22;20015;-88
2023/07/14 07:37:39;;;;;;;26.30;9.95;;;;;;;-142.57;100.00;115900.28;6258283;22;20011;-88
2023/07/14 07:40:17;;;;;;;19.23;10.27;;;;;;;-142.57;100.00;115900.28;6284828;22;20034;-87
2023/07/14 07:42:51;;;;;;;17.40;10.13;;;;;;;-142.57;100.00;115900.28;6264856;22;20034;-88
2023/07/14 07:45:16;;;;;;;17.60;9.98;;;;;;;-142.57;100.00;115900.28;6286331;22;20334;-88
2023/07/14 07:47:42;;;;;;;20.75;9.77;;;;;;;-142.57;100.00;115900.28;6288340;22;20015;-88
2023/07/14 07:50:14;;;;;;;26.83;11.80;;;;;;;-142.57;100.00;115900.28;6271930;22;20008;-87
2023/07/14 07:52:45;;;;;;;31.60;10.68;;;;;;;-142.57;100.00;115900.28;6262676;22;20023;-88
2023/07/14 07:55:14;;;;;;;31.67;9.82;;;;;;;-142.57;100.00;115900.28;6287701;22;20070;-86
2023/07/14 07:57:40;;;;;;;24.38;10.40;;;;;;;-142.57;100.00;115900.28;6289182;22;20030;-88
2023/07/14 08:00:08;;;;;;;25.90;9.30;;;;;;;-142.57;100.00;115900.28;6228244;22;20020;-86
2023/07/14 08:02:41;;;;;;;23.60;11.30;;;;;;;-142.57;100.00;115900.28;6283314;22;20004;-89
2023/07/14 08:05:07;;;;;;;21.23;10.60;;;;;;;-142.57;100.00;115900.28;6229840;22;20016;-85
2023/07/14 08:07:32;;;;;;;27.35;10.70;;;;;;;-142.57;100.00;115900.28;6279367;22;20093;-88
2023/07/14 08:09:58;;;;;;;21.20;10.45;;;;;;;-142.57;100.00;115900.28;6226650;22;20054;-89
2023/07/14 08:12:25;;;;;;;29.67;12.00;;;;;;;-142.57;100.00;115900.28;6277311;22;20011;-88
2023/07/14 08:14:55;;;;;;;28.60;10.98;;;;;;;-142.57;100.00;115900.28;6277367;22;20004;-87
2023/07/14 08:17:26;;;;;;;22.58;10.30;;;;;;;-142.57;100.00;115900.28;6276879;22;20008;-89
2023/07/14 08:19:53;;;;;;;23.40;9.93;;;;;;;-142.57;100.00;115900.28;6224534;22;20003;-89
2023/07/14 08:22:20;;;;;;;26.05;11.27;;;;;;;-142.57;100.00;115900.28;6276674;22;20018;-85
2023/07/14 08:24:45;;;;;;;26.13;11.88;;;;;;;-142.57;100.00;115900.28;6276604;22;20008;-87
2023/07/14 08:27:11;;;;;;;30.90;12.35;;;;;;;-142.57;100.00;115900.28;6277721;22;20382;-87
2023/07/14 08:29:36;;;;;;;27.45;11.95;;;;;;;-142.57;100.00;115900.28;6277663;22;20084;-87
2023/07/14 08:32:02;;;;;;;25.48;13.43;;;;;;;-142.57;100.00;115900.28;6278107;22;20079;-87
2023/07/14 08:34:29;;;;;;;24.88;13.15;;;;;;;-142.57;100.00;115900.28;6251785;22;20012;-87
2023/07/14 08:36:55;;;;;;;34.72;14.05;;;;;;;-142.57;100.00;115900.28;6228902;22;20020;-88
2023/07/14 08:39:21;;;;;;;30.77;12.43;;;;;;;-142.57;100.00;115900.28;6251681;22;20453;-88
2023/07/14 08:41:53;;;;;;;30.10;13.25;;;;;;;-142.57;100.00;115900.28;6278834;22;20012;-88
2023/07/14 08:44:44;;;;;;;32.58;15.00;;;;;;;-142.57;100.00;115900.28;6252454;22;20019;-87
2023/07/14 08:47:23;;;;;;;25.48;13.20;;;;;;;-142.57;100.00;115900.28;6278325;22;20016;-89
2023/07/14 08:49:56;;;;;;;33.85;13.93;;;;;;;-142.57;100.00;115900.28;6253451;22;20008;-89
2023/07/14 08:52:28;;;;;;;40.72;18.55;;;;;;;-142.57;100.00;115900.28;6280205;22;20007;-86
2023/07/14 08:54:59;;;;;;;33.83;16.67;;;;;;;-142.57;100.00;115900.28;6278809;22;20082;-88
2023/07/14 08:57:27;;;;;;;27.90;15.03;;;;;;;-142.57;100.00;115900.28;6278965;22;20399;-86
2023/07/14 09:00:03;;;;;;;27.98;14.35;;;;;;;-142.57;100.00;115900.28;6281814;22;20086;-88
2023/07/14 09:02:34;;;;;;;39.33;14.68;;;;;;;-142.57;100.00;115900.28;6282967;22;20145;-85
2023/07/14 09:05:08;;;;;;;21.08;12.98;;;;;;;-142.57;100.00;115900.28;6281722;22;20015;-88
2023/07/14 09:07:34;;;;;;;29.02;14.68;;;;;;;-142.57;100.00;115900.28;6281536;22;20502;-86
2023/07/14 09:09:59;;;;;;;26.23;14.07;;;;;;;-142.57;100.00;115900.28;6285802;22;20016;-89
2023/07/14 09:12:41;;;;;;;22.80;13.23;;;;;;;-142.57;100.00;115900.28;6254605;22;20070;-87
2023/07/14 09:15:32;;;;;;;23.40;14.43;;;;;;;-142.57;100.00;115900.28;6294405;22;20007;-85
2023/07/14 09:18:30;;;;;;;25.35;15.07;;;;;;;-142.57;100.00;115900.28;6290062;22;20014;-86
2023/07/14 09:21:25;;;;;;;30.95;14.32;;;;;;;-142.57;100.00;115900.28;6269955;22;20015;-86
2023/07/14 09:24:20;;;;;;;22.55;13.20;;;;;;;-142.57;100.00;115900.28;6277772;22;20007;-90
2023/07/14 09:26:53;;;;;;;27.50;14.20;;;;;;;-142.57;100.00;115900.28;6241347;22;20102;-87
2023/07/14 09:29:27;;;;;;;22.55;14.30;;;;;;;-142.57;100.00;115900.28;6264936;22;20023;-88
2023/07/14 09:32:00;;;;;;;24.50;13.70;;;;;;;-142.57;100.00;115900.28;6293511;22;20034;-88
2023/07/14 09:34:32;;;;;;;24.52;13.77;;;;;;;-142.57;100.00;115900.28;6282332;22;20011;-84
2023/07/14 09:37:00;;;;;;;12.80;8.57;;;;;;;-142.57;100.00;115900.28;6274595;22;20018;-85
2023/07/14 09:39:42;;;;;;;34.85;15.13;;;;;;;-142.57;100.00;115900.28;6277037;22;20003;-83
2023/07/14 09:42:17;;;;;;;28.38;14.82;;;;;;;-142.57;100.00;115900.28;6277281;22;20018;-87
2023/07/14 09:44:43;;;;;;;22.33;13.75;;;;;;;-142.57;100.00;115900.28;6250410;22;20019;-84
2023/07/14 09:47:10;;;;;;;28.65;13.35;;;;;;;-142.57;100.00;115900.28;6278471;22;20062;-85
2023/07/14 09:49:41;;;;;;;19.67;12.32;;;;;;;-142.57;100.00;115900.28;6277827;22;20008;-85
2023/07/14 09:52:13;;;;;;;23.17;13.48;;;;;;;-142.57;100.00;115900.28;6278107;22;20008;-85
2023/07/14 09:54:50;;;;;;;24.63;13.68;;;;;;;-142.57;100.00;115900.28;6277247;22;20038;-88
2023/07/14 09:57:18;;;;;;;27.88;13.07;;;;;;;-142.57;100.00;115900.28;6277623;22;20042;-88
2023/07/14 09:59:54;;;;;;;24.67;13.15;;;;;;;-142.57;100.00;115900.28;6277699;22;20018;-85
2023/07/14 10:02:26;;;;;;;22.63;13.18;;;;;;;-142.57;100.00;115900.28;6282617;22;20008;-89
2023/07/14 10:04:55;;;;;;;18.80;11.23;;;;;;;-142.57;100.00;115900.28;6280049;22;20070;-89
2023/07/14 10:07:37;;;;;;;23.77;11.25;;;;;;;-142.57;100.00;115900.28;6257088;22;20016;-87
2023/07/14 10:10:08;;;;;;;26.97;12.17;;;;;;;-142.57;100.00;115900.28;6275899;22;20046;-90
2023/07/14 10:12:42;;;;;;;21.65;11.00;;;;;;;-142.57;100.00;115900.28;6280860;22;20336;-87
2023/07/14 10:17:55;;;;;;;19.10;10.95;;;;;;;-142.57;98.80;115900.28;6275621;22;20023;-87
2023/07/14 10:20:22;;;;;;;24.17;12.10;;;;;;;-142.57;98.88;115900.28;6253091;22;20007;-87
2023/07/14 10:22:58;;;;;;;19.92;11.32;;;;;;;-142.57;98.58;115900.28;6252886;22;20011;-88
2023/07/14 10:25:27;;;;;;;18.80;10.75;;;;;;;-142.57;96.12;115900.28;6256750;22;20028;-87
2023/07/14 10:28:12;;;;;;;19.33;10.30;;;;;;;-142.57;96.17;115900.28;6252874;22;20390;-87
2023/07/14 10:30:57;;;;;;;18.55;8.77;;;;;;;-142.57;95.02;115900.28;6255496;22;20022;-87
2023/07/14 10:33:24;;;;;;;19.50;9.30;;;;;;;-142.57;92.52;115900.28;6279598;22;20058;-87
2023/07/14 10:35:59;;;;;;;23.38;9.73;;;;;;;-142.57;91.16;115900.28;6280517;22;20484;-87
2023/07/14 10:38:39;;;;;;;19.48;7.65;;;;;;;-142.57;92.73;115900.28;6282807;22;20014;-86
2023/07/14 10:41:08;;;;;;;22.63;8.05;;;;;;;-142.57;91.56;115900.28;6255081;22;20308;-85
2023/07/14 10:43:39;;;;;;;20.15;7.80;;;;;;;-142.57;90.10;115900.28;6281129;22;20018;-85
2023/07/14 10:46:15;;;;;;;13.73;6.90;;;;;;;-142.57;88.43;115900.28;6282065;22;20012;-89
2023/07/14 10:48:52;;;;;;;23.08;7.35;;;;;;;-142.57;84.96;115900.28;6254146;22;20356;-90
2023/07/14 10:51:42;;;;;;;21.75;7.30;;;;;;;-142.57;85.16;115900.28;6279002;22;20061;-83
2023/07/14 10:54:10;;;;;;;16.77;5.28;;;;;;;-142.57;84.41;115900.28;6281123;22;20038;-84
2023/07/14 10:56:58;;;;;;;16.95;5.72;;;;;;;-142.57;83.13;115900.28;6279882;22;20446;-89
2023/07/14 10:59:37;;;;;;;16.27;4.97;;;;;;;-142.57;81.04;115900.28;6253028;22;20388;-84
2023/07/14 11:02:21;;;;;;;13.80;5.13;;;;;;;-142.57;80.66;115900.28;6281715;22;20451;-84
2023/07/14 11:04:52;;;;;;;16.10;5.45;;;;;;;-142.57;80.13;115900.28;6279477;22;20498;-86
2023/07/14 11:07:38;;;;;;;19.27;5.40;;;;;;;-142.57;81.66;115900.28;6266735;22;20008;-90
2023/07/14 11:10:25;;;;;;;17.75;5.78;;;;;;;-142.57;84.48;115900.28;6249453;22;20015;-89